Airfield :
LOGIN :

Register | Disclaimer

   EN    FR    IT 

 










Legend :    VFR   Marginal VFR   IFR   Intensive IFR   Very Intensive IFR
Visi :
Ceiling :
>= 8 km
>= 3000ft
5 to 8 km
1000 to 3000 ft
1500m to 5 km
500 to 1000 ft
800 to 1500m
200 to 500 ft
< 800m
< 200 ft
Symbols :   Thunderstorms  Fog  Heavy snow  Heavy precipitations  Wind > 20 kt
SIGMETs :     Misc.  Thunderstorms  Icing  Turbulence  Mountain Waves  Volcanic Ashes







- Airport Elevation : 38 ft
- IATA code : TRE
- Download approach charts


EGPU - Tiree

CURRENT METAR :
  • 220350Z AUTO 26015KT 9999 FEW034/// 07/05 Q0998 RERA

EXPIRED METARs :
  • 220320Z AUTO 26015KT 9999 NCD 07/05 Q0998
  • 220250Z AUTO 25016KT 220V280 9999 NCD 07/05 Q0998
  • 220220Z AUTO 26012G24KT 230V290 9999 FEW021/// 07/04 Q0998
  • 220150Z AUTO 25011G21KT 230V290 9999 NCD 07/04 Q0997
  • 220120Z AUTO 25019KT 9999 NCD 07/04 Q0997

Expired Forecast.
No reported NOTAMs for that airfield.
1 SIGMET reported for the Scottish FIR (EGPX) :
 
Severe mountain waves
EGPX SIGMET 01 VALID 220230/220630 EGRR
EGPX SCOTTISH FIR SEV MTW FCST WI N5500 E00025 - N5500 W00348 - N5602 W00458 - N5817 W00628 - N5851 W00236 - N5500 E00025 FL040/270 STNR NC=



MET'MAP, your aeronautical weather chart ! - Copyright ORBIFLY December 2007 - Disclaimer

ORBIFLY MET'MAP TEAM :

Programming & Development : Alexandra Zaïnal
Concept & Development : Baudouin d'Aumeries
Co-Development & Prog : Marc-Olivier Méhu
Technical & hardware support : Manuel Goepfert

Contact : metmap@orbifly.com




SOURCES & CREDITS :

   NOAA